Time;durP1;ratioP1;P1;durP2;ratioP2;P2;SDS_P1;SDS_P2;PMS_P1;PMS_P2;Temp;Humidity;BMP_temperature;BMP_pressure;BME280_temperature;BME280_humidity;BME280_pressure;Samples;Min_cycle;Max_cycle;Signal;HPM_P1;HPM_P2
2021/09/09 00:00:47;;;;;;;25.55;13.88;;;14.60;99.90;;;;;;5029590;28;20029;-67
2021/09/09 00:03:14;;;;;;;25.35;14.63;;;14.60;99.90;;;;;;5027488;28;20044;-67
2021/09/09 00:05:40;;;;;;;22.17;14.30;;;14.50;99.90;;;;;;5030879;28;20029;-67
2021/09/09 00:08:05;;;;;;;23.63;15.40;;;14.50;99.90;;;;;;5029979;28;20527;-67
2021/09/09 00:10:32;;;;;;;26.10;15.73;;;14.50;99.90;;;;;;5033026;28;20116;-67
2021/09/09 00:12:58;;;;;;;27.67;15.15;;;14.50;99.90;;;;;;5034545;28;20061;-67
2021/09/09 00:15:23;;;;;;;27.20;15.45;;;14.50;99.90;;;;;;5034028;28;20145;-67
2021/09/09 00:17:50;;;;;;;25.00;15.23;;;14.60;99.90;;;;;;5033986;28;20531;-67
2021/09/09 00:20:15;;;;;;;22.95;14.48;;;14.60;99.90;;;;;;5032688;28;20044;-67
2021/09/09 00:22:42;;;;;;;20.27;13.60;;;14.60;99.90;;;;;;5033863;28;20025;-67
2021/09/09 00:25:08;;;;;;;21.23;13.77;;;14.60;99.90;;;;;;5029504;28;20464;-67
2021/09/09 00:27:35;;;;;;;20.27;13.40;;;14.60;99.90;;;;;;5032511;28;20080;-67
2021/09/09 00:30:00;;;;;;;24.63;14.30;;;14.50;99.90;;;;;;5033038;28;20843;-67
2021/09/09 00:32:27;;;;;;;22.85;15.18;;;14.40;99.90;;;;;;5033866;28;20024;-66
2021/09/09 00:34:53;;;;;;;21.50;14.77;;;14.50;99.90;;;;;;5033356;28;20029;-67
2021/09/09 00:37:20;;;;;;;23.42;14.18;;;14.40;99.90;;;;;;5034189;28;20528;-67
2021/09/09 00:39:45;;;;;;;24.98;15.40;;;14.40;99.90;;;;;;5035220;28;20024;-69
2021/09/09 00:42:11;;;;;;;24.10;15.25;;;14.30;99.90;;;;;;5033216;28;20032;-67
2021/09/09 00:44:36;;;;;;;25.95;15.60;;;14.30;99.90;;;;;;5032197;28;20051;-67
2021/09/09 00:47:02;;;;;;;23.92;14.82;;;14.30;99.90;;;;;;5037855;28;20036;-67
2021/09/09 00:49:27;;;;;;;26.30;14.82;;;14.30;99.90;;;;;;5034069;28;20400;-67
2021/09/09 00:51:53;;;;;;;22.67;14.60;;;14.30;99.90;;;;;;5033151;28;20039;-68
2021/09/09 00:54:18;;;;;;;22.27;15.13;;;14.20;99.90;;;;;;5031219;28;20416;-67
2021/09/09 00:56:44;;;;;;;21.40;13.98;;;14.20;99.90;;;;;;5031857;28;20033;-67
2021/09/09 00:59:09;;;;;;;29.75;14.93;;;14.20;99.90;;;;;;5031999;28;20132;-67
2021/09/09 01:01:35;;;;;;;29.75;15.05;;;14.10;99.90;;;;;;5032390;28;20144;-67
2021/09/09 01:04:00;;;;;;;22.48;14.07;;;14.20;99.90;;;;;;5030314;28;20041;-67
2021/09/09 01:06:26;;;;;;;23.08;15.43;;;14.20;99.90;;;;;;5032987;28;20153;-66
2021/09/09 01:08:51;;;;;;;21.67;14.40;;;14.10;99.90;;;;;;5029672;28;20624;-67
2021/09/09 01:11:17;;;;;;;22.13;14.02;;;14.10;99.90;;;;;;5033937;28;20029;-67
2021/09/09 01:13:42;;;;;;;23.50;14.57;;;14.10;99.90;;;;;;5030835;28;20030;-67
2021/09/09 01:16:08;;;;;;;23.70;15.35;;;14.10;99.90;;;;;;5032064;28;20051;-67
2021/09/09 01:18:33;;;;;;;25.13;14.98;;;14.10;99.90;;;;;;5028831;28;20132;-67
2021/09/09 01:20:59;;;;;;;23.40;14.75;;;14.00;99.90;;;;;;5032067;28;20087;-67
2021/09/09 01:23:24;;;;;;;22.95;15.38;;;14.00;99.90;;;;;;5033148;28;20086;-67
2021/09/09 01:25:50;;;;;;;21.23;14.52;;;14.00;99.90;;;;;;5033734;28;20029;-67
2021/09/09 01:28:15;;;;;;;29.08;16.02;;;13.90;99.90;;;;;;5033687;28;20025;-67
2021/09/09 01:30:41;;;;;;;26.42;16.50;;;14.00;99.90;;;;;;5032480;28;20068;-67
2021/09/09 01:33:06;;;;;;;25.58;17.17;;;13.90;99.90;;;;;;5031713;28;20115;-67
2021/09/09 01:35:32;;;;;;;27.48;16.58;;;13.90;99.90;;;;;;5035684;28;20044;-67
2021/09/09 01:37:57;;;;;;;27.63;16.20;;;13.90;99.90;;;;;;5029499;28;20561;-67
2021/09/09 01:40:23;;;;;;;23.75;14.90;;;13.80;99.90;;;;;;5033469;28;20040;-67
2021/09/09 01:42:48;;;;;;;26.67;16.92;;;13.80;99.90;;;;;;5032787;28;20042;-67
2021/09/09 01:45:14;;;;;;;25.25;15.35;;;13.80;99.90;;;;;;5030139;28;20148;-67
2021/09/09 01:47:39;;;;;;;24.38;15.48;;;13.80;99.90;;;;;;5033929;28;20025;-67
2021/09/09 01:50:05;;;;;;;32.40;17.30;;;13.70;99.90;;;;;;5030838;28;20200;-67
2021/09/09 01:52:30;;;;;;;26.88;16.20;;;13.70;99.90;;;;;;5032397;28;20037;-67
2021/09/09 01:54:56;;;;;;;25.90;16.95;;;13.70;99.90;;;;;;5030500;28;20049;-67
2021/09/09 01:57:21;;;;;;;28.80;16.40;;;13.70;99.90;;;;;;5031641;28;20040;-67
2021/09/09 01:59:50;;;;;;;25.70;16.33;;;13.60;99.90;;;;;;5031144;28;20104;-67
2021/09/09 02:02:16;;;;;;;27.45;17.08;;;13.60;99.90;;;;;;5031624;28;20116;-67
2021/09/09 02:04:41;;;;;;;26.15;17.02;;;13.60;99.90;;;;;;5030390;28;20037;-67
2021/09/09 02:07:07;;;;;;;31.88;16.45;;;13.60;99.90;;;;;;5032719;28;20039;-66
2021/09/09 02:09:32;;;;;;;30.48;17.42;;;13.60;99.90;;;;;;5030375;28;20055;-67
2021/09/09 02:11:58;;;;;;;29.80;17.88;;;13.50;99.90;;;;;;5033854;28;20051;-67
2021/09/09 02:14:23;;;;;;;24.33;17.05;;;13.50;99.90;;;;;;5031436;28;20044;-67
2021/09/09 02:16:51;;;;;;;30.17;16.73;;;13.50;99.90;;;;;;5028952;28;20045;-67
2021/09/09 02:19:17;;;;;;;24.90;16.20;;;13.50;99.90;;;;;;5030033;28;20505;-67
2021/09/09 02:21:42;;;;;;;28.67;18.00;;;13.80;99.90;;;;;;5032296;28;20056;-67
2021/09/09 02:24:08;;;;;;;27.23;17.35;;;13.50;99.90;;;;;;5030164;28;20436;-67
2021/09/09 02:26:33;;;;;;;27.23;17.77;;;13.40;99.90;;;;;;5033313;28;20489;-67
2021/09/09 02:28:59;;;;;;;24.40;16.85;;;13.40;99.90;;;;;;5027967;28;20142;-67
2021/09/09 02:31:24;;;;;;;28.70;16.98;;;13.40;99.90;;;;;;5031850;28;20032;-67
2021/09/09 02:33:50;;;;;;;29.73;17.58;;;13.30;99.90;;;;;;5029663;28;20037;-67
2021/09/09 02:36:15;;;;;;;29.00;18.38;;;13.30;99.90;;;;;;5029683;28;20116;-67
2021/09/09 02:38:41;;;;;;;25.40;17.20;;;13.40;99.90;;;;;;5031919;28;20039;-67
2021/09/09 02:41:06;;;;;;;26.77;17.15;;;13.30;99.90;;;;;;5029806;28;20382;-67
2021/09/09 02:43:32;;;;;;;29.48;17.77;;;13.30;99.90;;;;;;5027385;28;20040;-67
2021/09/09 02:45:57;;;;;;;28.35;18.30;;;13.30;99.90;;;;;;5028677;28;20209;-67
2021/09/09 02:48:22;;;;;;;27.02;18.25;;;13.20;99.90;;;;;;5031708;28;20033;-66
2021/09/09 02:50:48;;;;;;;26.27;17.23;;;13.20;99.90;;;;;;5029796;28;20029;-67
2021/09/09 02:53:14;;;;;;;25.58;17.13;;;13.20;99.90;;;;;;5030168;28;20540;-67
2021/09/09 02:55:39;;;;;;;31.30;18.52;;;13.20;99.90;;;;;;5033701;28;20516;-67
2021/09/09 02:58:04;;;;;;;27.75;18.35;;;13.20;99.90;;;;;;5029088;28;20037;-67
2021/09/09 03:00:30;;;;;;;28.23;18.00;;;13.10;99.90;;;;;;5031660;28;20492;-67
2021/09/09 03:02:55;;;;;;;29.73;17.13;;;13.20;99.90;;;;;;5029567;28;20075;-67
2021/09/09 03:05:21;;;;;;;27.17;18.25;;;13.10;99.90;;;;;;5030619;28;20034;-67
2021/09/09 03:07:46;;;;;;;26.98;17.90;;;13.10;99.90;;;;;;5030558;28;20075;-67
2021/09/09 03:10:12;;;;;;;31.00;19.05;;;13.10;99.90;;;;;;5027594;28;20104;-67
2021/09/09 03:12:37;;;;;;;30.70;18.33;;;13.00;99.90;;;;;;5029269;28;20029;-67
2021/09/09 03:15:03;;;;;;;28.45;18.58;;;13.00;99.90;;;;;;5030699;28;20028;-67
2021/09/09 03:17:28;;;;;;;29.38;18.10;;;13.10;99.90;;;;;;5030205;28;20048;-67
2021/09/09 03:19:54;;;;;;;32.88;21.20;;;13.10;99.90;;;;;;5027952;28;20041;-67
2021/09/09 03:22:20;;;;;;;27.23;18.05;;;13.00;99.90;;;;;;5031543;28;20041;-67
2021/09/09 03:24:45;;;;;;;31.02;18.10;;;13.00;99.90;;;;;;5029495;28;20039;-67
2021/09/09 03:27:11;;;;;;;30.63;18.60;;;12.90;99.90;;;;;;5029591;28;20517;-67
2021/09/09 03:29:36;;;;;;;29.17;18.00;;;13.00;99.90;;;;;;5029674;28;20086;-67
2021/09/09 03:32:02;;;;;;;29.27;17.27;;;12.90;99.90;;;;;;5025203;28;20540;-67
2021/09/09 03:34:27;;;;;;;32.63;18.45;;;12.90;99.90;;;;;;5026796;28;20037;-66
2021/09/09 03:36:53;;;;;;;28.98;17.52;;;12.80;99.90;;;;;;5024234;28;20045;-66
2021/09/09 03:39:18;;;;;;;31.35;18.48;;;12.90;99.90;;;;;;5026019;28;20079;-66
2021/09/09 03:41:44;;;;;;;33.75;18.45;;;12.80;99.90;;;;;;5030356;28;20029;-66
2021/09/09 03:44:09;;;;;;;33.03;19.02;;;12.80;99.90;;;;;;5027532;28;20686;-67
2021/09/09 03:46:35;;;;;;;32.92;20.58;;;13.30;99.90;;;;;;5030025;28;20045;-67
2021/09/09 03:49:00;;;;;;;35.85;19.08;;;12.80;99.90;;;;;;5024742;28;20033;-67
2021/09/09 03:51:26;;;;;;;34.67;20.23;;;12.70;99.90;;;;;;5028715;28;20029;-67
2021/09/09 03:53:51;;;;;;;34.97;20.42;;;12.70;99.90;;;;;;5031311;28;20039;-67
2021/09/09 03:56:16;;;;;;;33.28;18.85;;;12.70;99.90;;;;;;5033378;28;20072;-67
2021/09/09 03:58:42;;;;;;;30.33;18.50;;;12.70;99.90;;;;;;5031733;28;20056;-67
2021/09/09 04:01:08;;;;;;;31.23;17.48;;;12.70;99.90;;;;;;5029151;28;20059;-66
2021/09/09 04:03:33;;;;;;;33.10;18.15;;;12.70;99.90;;;;;;5030836;28;20045;-67
2021/09/09 04:05:58;;;;;;;29.77;18.52;;;12.70;99.90;;;;;;5029177;28;20095;-67
2021/09/09 04:08:24;;;;;;;29.63;18.90;;;12.60;99.90;;;;;;5030630;28;20481;-67
2021/09/09 04:10:50;;;;;;;30.25;19.10;;;12.60;99.90;;;;;;5030162;28;20143;-67
2021/09/09 04:13:15;;;;;;;31.13;18.92;;;12.60;99.90;;;;;;5032300;28;20695;-67
2021/09/09 04:15:41;;;;;;;30.75;19.05;;;12.60;99.90;;;;;;5030335;28;20103;-67
2021/09/09 04:18:06;;;;;;;31.27;18.52;;;12.60;99.90;;;;;;5032651;28;20755;-67
2021/09/09 04:20:31;;;;;;;29.70;18.52;;;12.60;99.90;;;;;;5026079;28;20033;-67
2021/09/09 04:22:57;;;;;;;30.92;18.50;;;12.50;99.90;;;;;;5029476;28;20076;-67
2021/09/09 04:25:22;;;;;;;29.63;18.25;;;12.50;99.90;;;;;;5032471;28;20060;-67
2021/09/09 04:27:48;;;;;;;27.75;19.30;;;12.50;99.90;;;;;;5028287;28;20025;-67
2021/09/09 04:30:13;;;;;;;30.45;19.02;;;12.50;99.90;;;;;;5028721;28;20061;-66
2021/09/09 04:32:39;;;;;;;28.65;18.27;;;12.50;99.90;;;;;;5030340;28;20587;-66
2021/09/09 04:35:04;;;;;;;25.95;18.00;;;12.40;99.90;;;;;;5029941;28;20470;-66
2021/09/09 04:37:30;;;;;;;32.92;19.50;;;12.40;99.90;;;;;;5030257;28;20036;-66
2021/09/09 04:39:55;;;;;;;28.27;18.58;;;12.40;99.90;;;;;;5031468;28;20029;-66
2021/09/09 04:42:21;;;;;;;28.15;18.40;;;12.40;99.90;;;;;;5029401;28;20426;-67
2021/09/09 04:44:46;;;;;;;29.95;19.10;;;12.30;99.90;;;;;;5029469;28;20025;-66
2021/09/09 04:47:12;;;;;;;29.40;17.88;;;12.30;99.90;;;;;;5031172;28;20067;-67
2021/09/09 04:49:37;;;;;;;28.85;18.80;;;12.30;99.90;;;;;;5030140;28;20452;-66
2021/09/09 04:52:03;;;;;;;29.67;17.85;;;12.30;99.90;;;;;;5031822;28;20053;-66
2021/09/09 04:54:28;;;;;;;27.58;17.45;;;12.30;99.90;;;;;;5014940;28;20041;-66
2021/09/09 04:56:54;;;;;;;25.85;17.73;;;12.30;99.90;;;;;;5034855;28;20788;-66
2021/09/09 04:59:19;;;;;;;26.48;17.00;;;12.30;99.90;;;;;;5032312;28;20512;-66
2021/09/09 05:01:45;;;;;;;33.30;18.10;;;12.30;99.90;;;;;;5032917;28;20037;-66
2021/09/09 05:04:10;;;;;;;29.85;17.80;;;12.30;99.90;;;;;;5030245;28;20045;-66
2021/09/09 05:06:35;;;;;;;25.98;17.65;;;12.50;99.90;;;;;;5037109;28;20080;-67
2021/09/09 05:09:01;;;;;;;26.98;17.08;;;12.20;99.90;;;;;;5034255;28;20025;-67
2021/09/09 05:11:27;;;;;;;27.80;17.27;;;12.30;99.90;;;;;;5037164;28;20033;-66
2021/09/09 05:13:52;;;;;;;28.52;17.38;;;12.30;99.90;;;;;;5035426;28;20558;-66
2021/09/09 05:16:18;;;;;;;29.10;18.05;;;12.30;99.90;;;;;;5033423;28;20033;-66
2021/09/09 05:18:43;;;;;;;27.30;17.80;;;12.40;99.90;;;;;;5029750;28;20039;-66
2021/09/09 05:21:09;;;;;;;30.48;18.42;;;12.40;99.90;;;;;;5033197;28;20036;-67
2021/09/09 05:23:34;;;;;;;34.28;18.35;;;12.40;99.90;;;;;;5035125;28;20034;-67
2021/09/09 05:26:00;;;;;;;25.80;16.50;;;12.50;99.90;;;;;;5031618;28;20029;-66
2021/09/09 05:28:25;;;;;;;39.40;17.85;;;12.50;99.90;;;;;;5029391;28;20034;-66
2021/09/09 05:30:51;;;;;;;27.42;17.58;;;12.60;99.90;;;;;;5031176;28;20044;-66
2021/09/09 05:33:16;;;;;;;25.50;16.55;;;12.60;99.90;;;;;;5032626;28;20112;-66
2021/09/09 05:35:43;;;;;;;30.25;19.40;;;12.60;99.90;;;;;;5036098;28;20037;-65
2021/09/09 05:38:08;;;;;;;27.13;18.65;;;12.70;99.90;;;;;;5032505;28;20033;-65
2021/09/09 05:40:34;;;;;;;29.00;18.38;;;12.80;99.90;;;;;;5035975;28;20031;-65
2021/09/09 05:42:59;;;;;;;30.00;18.10;;;12.90;99.90;;;;;;5032071;28;20033;-65
2021/09/09 05:45:25;;;;;;;37.55;20.77;;;13.00;99.90;;;;;;5031375;28;20048;-65
2021/09/09 05:47:50;;;;;;;24.85;16.15;;;13.00;99.90;;;;;;5026994;28;20036;-65
2021/09/09 05:50:17;;;;;;;26.60;16.58;;;13.10;99.90;;;;;;5030343;28;20079;-64
2021/09/09 05:52:43;;;;;;;28.80;17.08;;;13.10;99.90;;;;;;5028078;28;20091;-64
2021/09/09 05:55:08;;;;;;;25.55;15.98;;;13.20;99.90;;;;;;5031094;28;20030;-65
2021/09/09 05:57:34;;;;;;;21.75;14.65;;;13.30;99.90;;;;;;5028267;28;20026;-65
2021/09/09 05:59:59;;;;;;;28.77;16.73;;;13.40;99.90;;;;;;5031139;28;20021;-64
2021/09/09 06:02:27;;;;;;;35.28;21.58;;;13.40;99.90;;;;;;5030081;28;20856;-64
2021/09/09 06:04:55;;;;;;;25.92;15.43;;;13.50;99.90;;;;;;5027896;28;20103;-63
2021/09/09 06:07:20;;;;;;;26.38;15.57;;;13.60;99.90;;;;;;5032836;28;20033;-64
2021/09/09 06:09:46;;;;;;;24.92;15.00;;;13.70;99.90;;;;;;5023074;28;20568;-64
2021/09/09 06:12:11;;;;;;;24.05;14.15;;;13.80;99.90;;;;;;4995646;28;20401;-64
2021/09/09 06:14:37;;;;;;;24.45;14.30;;;14.70;99.90;;;;;;5003053;28;20026;-66
2021/09/09 06:17:02;;;;;;;20.13;13.48;;;13.90;99.90;;;;;;4998507;28;20723;-66
2021/09/09 06:19:28;;;;;;;26.10;13.98;;;13.90;99.90;;;;;;5000072;28;20637;-66
2021/09/09 06:21:53;;;;;;;22.17;13.52;;;14.10;99.90;;;;;;5001512;28;20095;-66
2021/09/09 06:24:19;;;;;;;26.98;12.75;;;14.50;99.90;;;;;;5000041;28;20057;-65
2021/09/09 06:26:44;;;;;;;24.95;13.13;;;14.20;99.90;;;;;;5001577;28;20485;-65
2021/09/09 06:29:10;;;;;;;19.27;12.27;;;14.40;99.90;;;;;;5007209;28;20450;-65
2021/09/09 06:31:35;;;;;;;26.88;12.93;;;14.40;99.90;;;;;;5001196;28;20092;-65
2021/09/09 06:34:01;;;;;;;25.77;11.82;;;14.50;99.90;;;;;;5001727;28;20625;-65
2021/09/09 06:36:26;;;;;;;19.48;12.85;;;14.60;99.90;;;;;;5001319;28;20048;-65
2021/09/09 06:38:52;;;;;;;21.38;12.45;;;14.70;99.90;;;;;;5002081;28;20092;-66
2021/09/09 06:41:17;;;;;;;23.02;12.43;;;14.80;99.90;;;;;;4997575;28;20043;-66
2021/09/09 06:43:43;;;;;;;33.55;13.40;;;15.00;99.90;;;;;;4999444;28;20045;-66
2021/09/09 06:46:08;;;;;;;17.23;11.05;;;15.10;99.90;;;;;;5000283;28;20041;-66
2021/09/09 06:48:34;;;;;;;21.42;11.50;;;15.20;99.90;;;;;;5000484;28;20526;-65
2021/09/09 06:51:01;;;;;;;19.42;11.48;;;15.30;99.90;;;;;;5001812;28;20026;-65
2021/09/09 06:53:26;;;;;;;20.52;11.20;;;15.40;99.90;;;;;;4999468;28;20056;-67
2021/09/09 06:55:52;;;;;;;16.65;10.45;;;15.50;99.90;;;;;;5000967;28;20498;-65
2021/09/09 06:58:17;;;;;;;19.77;11.18;;;15.60;99.90;;;;;;5001709;28;20072;-66
2021/09/09 07:00:43;;;;;;;17.83;9.57;;;15.80;99.90;;;;;;5000973;28;20025;-66
2021/09/09 07:03:09;;;;;;;38.95;19.63;;;16.20;99.90;;;;;;4996704;28;20042;-66
2021/09/09 07:05:34;;;;;;;19.45;10.02;;;16.00;99.90;;;;;;4994717;28;20140;-65
2021/09/09 07:08:00;;;;;;;14.75;9.18;;;16.10;99.90;;;;;;4999954;28;20053;-65
2021/09/09 07:10:25;;;;;;;35.08;17.35;;;16.20;99.90;;;;;;5001331;28;20045;-65
2021/09/09 07:12:51;;;;;;;16.67;9.52;;;16.50;99.90;;;;;;5000717;28;20129;-65
2021/09/09 07:15:16;;;;;;;18.17;9.75;;;20.20;99.90;;;;;;5000895;28;20112;-67
2021/09/09 07:17:42;;;;;;;15.75;8.23;;;16.50;99.90;;;;;;4997412;28;20423;-66
2021/09/09 07:20:07;;;;;;;12.52;8.05;;;16.60;99.90;;;;;;5001368;28;20087;-65
2021/09/09 07:22:33;;;;;;;18.20;9.52;;;16.60;99.90;;;;;;5000645;28;20536;-65
2021/09/09 07:24:58;;;;;;;12.95;8.05;;;16.70;99.90;;;;;;4999327;28;20050;-65
2021/09/09 07:27:24;;;;;;;16.35;8.63;;;16.90;99.90;;;;;;5001788;28;20040;-65
2021/09/09 07:29:49;;;;;;;19.35;8.93;;;17.00;99.90;;;;;;5000570;28;20771;-65
2021/09/09 07:32:15;;;;;;;14.73;8.80;;;17.20;99.90;;;;;;4999951;28;20030;-65
2021/09/09 07:34:40;;;;;;;13.85;7.97;;;17.30;99.90;;;;;;5001159;28;20068;-65
2021/09/09 07:37:06;;;;;;;19.05;8.32;;;17.40;99.90;;;;;;5001074;28;20064;-67
2021/09/09 07:39:31;;;;;;;13.30;7.45;;;17.50;99.90;;;;;;5001587;28;20042;-67
2021/09/09 07:41:56;;;;;;;16.38;8.05;;;18.00;99.90;;;;;;5000975;28;20065;-67
2021/09/09 07:44:22;;;;;;;15.82;7.72;;;18.20;99.90;;;;;;5000401;28;20490;-68
2021/09/09 07:46:47;;;;;;;18.77;8.52;;;17.30;99.90;;;;;;5000123;28;20034;-67
2021/09/09 07:49:15;;;;;;;23.83;12.25;;;18.10;99.90;;;;;;5000893;28;20037;-67
2021/09/09 07:51:41;;;;;;;19.15;8.13;;;18.30;99.90;;;;;;5001077;28;20033;-68
2021/09/09 07:54:06;;;;;;;14.90;8.02;;;18.50;99.90;;;;;;4999892;28;20037;-67
2021/09/09 07:56:32;;;;;;;15.10;7.70;;;18.60;99.90;;;;;;5000835;28;20072;-67
2021/09/09 07:58:57;;;;;;;14.23;7.90;;;18.80;99.90;;;;;;4999056;28;20042;-66
2021/09/09 08:01:23;;;;;;;17.02;8.98;;;18.90;99.90;;;;;;5001077;28;20069;-68
2021/09/09 08:03:48;;;;;;;16.23;7.28;;;19.00;99.90;;;;;;4999783;28;20034;-67
2021/09/09 08:06:14;;;;;;;14.38;6.95;;;19.20;99.90;;;;;;4999753;28;20473;-68
2021/09/09 08:08:39;;;;;;;17.98;7.13;;;19.40;99.90;;;;;;5001723;28;20091;-67
2021/09/09 08:11:04;;;;;;;14.32;7.30;;;19.60;99.90;;;;;;4999509;28;20030;-68
2021/09/09 08:13:30;;;;;;;14.00;7.53;;;19.70;99.90;;;;;;5000479;28;20658;-68
2021/09/09 08:15:56;;;;;;;16.55;7.63;;;20.00;99.90;;;;;;4999508;28;20084;-67
2021/09/09 08:18:21;;;;;;;19.23;7.15;;;20.00;99.90;;;;;;4999115;28;20042;-67
2021/09/09 08:20:46;;;;;;;22.67;12.48;;;19.90;99.90;;;;;;5000323;28;20042;-67
2021/09/09 08:23:12;;;;;;;13.45;9.07;;;20.20;99.90;;;;;;4998794;28;20140;-67
2021/09/09 08:25:37;;;;;;;13.65;7.53;;;20.30;99.90;;;;;;4999355;28;20054;-68
2021/09/09 08:28:03;;;;;;;16.20;7.28;;;20.40;99.90;;;;;;5002078;28;20036;-66
2021/09/09 08:30:29;;;;;;;16.92;8.00;;;20.70;99.90;;;;;;5003213;28;20037;-66
2021/09/09 08:32:54;;;;;;;16.70;7.15;;;21.00;99.90;;;;;;5003385;28;20029;-66
2021/09/09 08:35:19;;;;;;;18.08;7.40;;;21.40;99.90;;;;;;5002421;28;20153;-66
2021/09/09 08:37:45;;;;;;;13.80;7.20;;;21.60;99.10;;;;;;5003588;28;20033;-66
2021/09/09 08:40:10;;;;;;;11.93;6.88;;;21.70;98.60;;;;;;5002847;28;20033;-66
2021/09/09 08:42:36;;;;;;;11.65;7.07;;;21.80;98.80;;;;;;5002845;28;20038;-67
2021/09/09 08:45:02;;;;;;;11.95;6.53;;;21.70;99.30;;;;;;5003016;28;20034;-67
2021/09/09 08:47:27;;;;;;;13.68;8.90;;;21.70;99.30;;;;;;5002194;28;20025;-67
2021/09/09 08:49:53;;;;;;;14.82;7.70;;;21.80;98.50;;;;;;5011363;28;20133;-67
2021/09/09 08:52:18;;;;;;;13.50;7.35;;;22.10;97.90;;;;;;5004342;28;20034;-67
2021/09/09 08:54:44;;;;;;;15.20;7.07;;;22.20;97.60;;;;;;5003797;28;20413;-67
2021/09/09 08:57:09;;;;;;;17.95;6.90;;;22.10;98.10;;;;;;5003457;28;20105;-67
2021/09/09 08:59:35;;;;;;;16.60;6.82;;;22.40;97.40;;;;;;5000023;28;20228;-67
2021/09/09 09:02:00;;;;;;;10.57;6.70;;;22.40;96.00;;;;;;5002829;28;20081;-67
2021/09/09 09:04:26;;;;;;;13.43;6.43;;;22.60;97.90;;;;;;5002049;28;20176;-67
2021/09/09 09:06:51;;;;;;;11.85;7.30;;;22.80;96.80;;;;;;4999063;28;20112;-67
2021/09/09 09:09:19;;;;;;;13.35;6.80;;;22.90;96.70;;;;;;4997078;28;20036;-67
2021/09/09 09:11:45;;;;;;;14.38;7.65;;;22.90;97.30;;;;;;5001991;28;20033;-67
2021/09/09 09:14:10;;;;;;;9.73;6.68;;;23.30;95.60;;;;;;5003952;28;20034;-67
2021/09/09 09:16:36;;;;;;;15.43;8.07;;;23.00;95.20;;;;;;5003475;28;20045;-67
2021/09/09 09:19:01;;;;;;;15.88;8.70;;;22.90;96.20;;;;;;5002761;28;20034;-67
2021/09/09 09:21:27;;;;;;;17.95;7.45;;;22.60;97.40;;;;;;5002513;28;20042;-68
2021/09/09 09:23:53;;;;;;;25.00;7.53;;;22.90;97.60;;;;;;5002432;28;20034;-69
2021/09/09 09:26:18;;;;;;;19.75;8.13;;;23.10;96.80;;;;;;5003709;28;20034;-67
2021/09/09 09:28:47;;;;;;;11.98;6.70;;;23.40;96.60;;;;;;5004113;28;20034;-67
2021/09/09 09:31:12;;;;;;;12.95;6.78;;;23.50;95.70;;;;;;5003706;28;20478;-67
2021/09/09 09:33:38;;;;;;;19.77;6.93;;;23.60;95.30;;;;;;5005206;28;20064;-67
2021/09/09 09:36:03;;;;;;;13.07;7.10;;;23.80;95.90;;;;;;5003052;28;20030;-65
2021/09/09 09:38:29;;;;;;;12.02;6.72;;;24.00;96.10;;;;;;5002638;28;20033;-67
2021/09/09 09:40:54;;;;;;;11.25;6.82;;;23.70;96.00;;;;;;5002203;28;20041;-68
2021/09/09 09:43:20;;;;;;;13.93;6.53;;;;;;;;;;5001434;28;20046;-68
2021/09/09 09:45:46;;;;;;;16.20;6.88;;;24.10;95.60;;;;;;5001708;28;20034;-69
2021/09/09 09:48:11;;;;;;;15.00;7.47;;;24.30;97.50;;;;;;5000473;28;20026;-68
2021/09/09 09:50:37;;;;;;;30.75;17.75;;;23.90;96.80;;;;;;5008586;28;20034;-67
2021/09/09 09:53:02;;;;;;;14.63;7.63;;;23.70;95.80;;;;;;5001210;28;20076;-66
2021/09/09 09:55:28;;;;;;;22.88;12.57;;;24.30;95.00;;;;;;5000779;28;21065;-67
2021/09/09 09:57:53;;;;;;;14.07;7.28;;;24.60;94.90;;;;;;4998575;28;20117;-67
2021/09/09 10:00:19;;;;;;;29.98;17.90;;;24.60;94.70;;;;;;4998698;28;20401;-66
2021/09/09 10:02:44;;;;;;;15.18;7.28;;;24.70;94.20;;;;;;5002188;28;20042;-66
2021/09/09 10:05:10;;;;;;;21.13;10.35;;;24.70;96.40;;;;;;5001543;28;20036;-66
2021/09/09 10:07:36;;;;;;;10.55;7.05;;;24.60;94.20;;;;;;5001787;28;20112;-66
2021/09/09 10:10:02;;;;;;;14.48;7.53;;;24.90;93.10;;;;;;5001567;28;20048;-66
2021/09/09 10:12:27;;;;;;;11.82;7.22;;;24.90;94.70;;;;;;5001687;28;20030;-66
2021/09/09 10:14:55;;;;;;;13.18;9.63;;;24.90;94.10;;;;;;5001823;28;20032;-66
2021/09/09 10:17:21;;;;;;;21.05;10.88;;;25.10;94.60;;;;;;5001567;28;20144;-66
2021/09/09 10:19:47;;;;;;;17.80;9.25;;;25.00;94.40;;;;;;5002327;28;20933;-66
2021/09/09 10:22:13;;;;;;;12.07;7.25;;;24.90;93.90;;;;;;4999918;28;20037;-66
2021/09/09 10:24:38;;;;;;;14.38;6.80;;;24.90;93.60;;;;;;5001331;28;20064;-66
2021/09/09 10:27:04;;;;;;;11.65;6.95;;;25.00;94.20;;;;;;5001172;28;20112;-66
2021/09/09 10:29:29;;;;;;;19.25;7.93;;;25.10;92.70;;;;;;5002329;28;20520;-66
2021/09/09 10:31:55;;;;;;;12.02;7.10;;;25.20;94.20;;;;;;5002513;28;20058;-66
2021/09/09 10:34:20;;;;;;;17.70;9.32;;;25.30;93.70;;;;;;4999427;28;20498;-66
2021/09/09 10:36:46;;;;;;;11.82;8.05;;;25.10;93.30;;;;;;4999924;28;21032;-66
2021/09/09 10:39:11;;;;;;;12.30;7.85;;;25.00;92.90;;;;;;5000905;28;20406;-66
2021/09/09 10:41:37;;;;;;;18.27;7.18;;;25.20;92.60;;;;;;5001134;28;20693;-68
2021/09/09 10:44:03;;;;;;;21.90;12.10;;;25.40;93.00;;;;;;5001915;28;20033;-71
2021/09/09 10:46:28;;;;;;;13.52;8.50;;;25.40;93.60;;;;;;4998900;28;20041;-72
2021/09/09 10:48:53;;;;;;;16.02;7.35;;;25.50;91.40;;;;;;5001461;28;20030;-73
2021/09/09 10:51:19;;;;;;;14.13;6.65;;;25.50;91.60;;;;;;5007467;28;20069;-71
2021/09/09 10:53:44;;;;;;;9.23;6.68;;;25.60;91.90;;;;;;5000622;28;20045;-71
2021/09/09 10:56:10;;;;;;;9.82;6.43;;;25.50;91.60;;;;;;5001123;28;20041;-71
2021/09/09 10:58:35;;;;;;;13.52;7.30;;;25.80;91.90;;;;;;5000440;28;20046;-71
2021/09/09 11:01:07;;;;;;;11.90;7.47;;;25.70;92.60;;;;;;5000353;28;20038;-71
2021/09/09 11:03:32;;;;;;;21.50;9.18;;;26.10;91.90;;;;;;5000904;28;20026;-72
2021/09/09 11:05:58;;;;;;;17.30;6.93;;;25.80;91.20;;;;;;4994512;28;20498;-71
2021/09/09 11:08:23;;;;;;;10.90;6.15;;;25.80;91.60;;;;;;4999975;28;20117;-72
2021/09/09 11:10:49;;;;;;;11.60;6.40;;;25.80;90.80;;;;;;5002257;28;20753;-72
2021/09/09 11:13:15;;;;;;;10.55;5.85;;;25.90;91.50;;;;;;5002480;28;20030;-72
2021/09/09 11:15:40;;;;;;;10.43;5.68;;;26.10;91.20;;;;;;5002095;28;20041;-72
2021/09/09 11:18:06;;;;;;;16.10;6.18;;;26.20;90.40;;;;;;5001472;28;20033;-72
2021/09/09 11:20:31;;;;;;;10.23;5.53;;;26.00;89.40;;;;;;5002559;28;20044;-70
2021/09/09 11:22:57;;;;;;;13.85;5.82;;;25.80;89.30;;;;;;5000801;28;20116;-72
2021/09/09 11:25:23;;;;;;;13.10;5.47;;;;;;;;;;5001562;28;20038;-70
2021/09/09 11:27:48;;;;;;;11.30;5.40;;;25.90;89.30;;;;;;5000955;28;20116;-71
2021/09/09 11:30:14;;;;;;;11.00;5.55;;;26.00;89.70;;;;;;4999399;28;20034;-71
2021/09/09 11:32:39;;;;;;;9.32;5.60;;;26.20;89.60;;;;;;5000765;28;20037;-70
2021/09/09 11:35:05;;;;;;;12.85;8.18;;;26.00;93.70;;;;;;4998686;28;20042;-71
2021/09/09 11:37:30;;;;;;;16.77;5.70;;;26.60;91.50;;;;;;5000038;28;20068;-71
2021/09/09 11:39:56;;;;;;;7.68;4.82;;;26.80;86.50;;;;;;5000133;28;20088;-70
2021/09/09 11:42:23;;;;;;;12.70;4.22;;;27.20;86.10;;;;;;4996982;28;20053;-67
2021/09/09 11:44:49;;;;;;;7.78;5.30;;;27.40;86.70;;;;;;5000014;28;20476;-68
2021/09/09 11:47:15;;;;;;;12.23;5.70;;;27.40;85.40;;;;;;5000177;28;20040;-68
2021/09/09 11:49:41;;;;;;;10.93;5.50;;;27.30;85.90;;;;;;4999853;28;20163;-68
2021/09/09 11:52:06;;;;;;;9.35;5.35;;;27.60;87.20;;;;;;4999747;28;20180;-68
2021/09/09 11:54:31;;;;;;;15.52;5.97;;;27.90;87.80;;;;;;4999858;28;20878;-68
2021/09/09 11:56:57;;;;;;;8.43;5.68;;;28.10;83.80;;;;;;4999306;28;20038;-69
2021/09/09 11:59:23;;;;;;;9.13;4.97;;;28.20;84.70;;;;;;4998479;28;20041;-68
2021/09/09 12:01:48;;;;;;;11.30;5.38;;;28.80;84.50;;;;;;5001264;28;20092;-68
2021/09/09 12:04:14;;;;;;;8.68;5.03;;;29.10;84.00;;;;;;5003760;28;20610;-69
2021/09/09 12:06:39;;;;;;;8.07;5.50;;;29.80;82.60;;;;;;5003331;28;20405;-69
2021/09/09 12:09:05;;;;;;;15.35;6.30;;;30.40;79.00;;;;;;5003861;28;20403;-69
2021/09/09 12:11:33;;;;;;;11.13;5.70;;;30.00;78.80;;;;;;5003474;28;20156;-68
2021/09/09 12:13:59;;;;;;;9.73;5.53;;;29.50;80.40;;;;;;4999803;28;20037;-67
2021/09/09 12:16:24;;;;;;;8.13;5.03;;;28.70;77.80;;;;;;5003094;28;20493;-68
2021/09/09 12:18:50;;;;;;;9.07;5.32;;;28.50;78.60;;;;;;5002773;28;20034;-71
2021/09/09 12:21:15;;;;;;;11.57;5.30;;;28.30;81.40;;;;;;5003808;28;20121;-69
2021/09/09 12:23:41;;;;;;;8.93;5.35;;;28.20;79.20;;;;;;4999608;28;20208;-69